Time;durP1;ratioP1;P1;durP2;ratioP2;P2;SDS_P1;SDS_P2;PMS_P1;PMS_P2;Temp;Humidity;BMP_temperature;BMP_pressure;BME280_temperature;BME280_humidity;BME280_pressure;Samples;Min_cycle;Max_cycle;Signal;HPM_P1;HPM_P2
2022/08/14 00:00:16;;;;;;;5.97;4.32;;;22.70;90.90;;;;;;5040642;28;38024;-57
2022/08/14 00:02:44;;;;;;;8.52;4.07;;;22.70;90.70;;;;;;5039637;28;37644;-57
2022/08/14 00:05:14;;;;;;;7.38;4.18;;;22.70;90.70;;;;;;5039541;28;39483;-58
2022/08/14 00:07:41;;;;;;;7.07;4.00;;;22.70;90.60;;;;;;5040894;28;36552;-57
2022/08/14 00:10:13;;;;;;;7.47;4.43;;;22.70;90.50;;;;;;5041131;28;38302;-57
2022/08/14 00:12:44;;;;;;;7.47;4.35;;;22.70;90.50;;;;;;5038122;28;37477;-57
2022/08/14 00:15:16;;;;;;;6.78;4.30;;;22.70;90.40;;;;;;5039126;28;38098;-57
2022/08/14 00:17:43;;;;;;;9.25;4.63;;;22.70;90.40;;;;;;5039509;28;38486;-57
2022/08/14 00:20:12;;;;;;;10.20;5.07;;;22.60;90.40;;;;;;5036902;28;36951;-57
2022/08/14 00:22:39;;;;;;;10.07;4.90;;;22.70;90.50;;;;;;5033208;28;37507;-57
2022/08/14 00:25:08;;;;;;;10.32;4.40;;;22.60;90.50;;;;;;5035450;28;38421;-57
2022/08/14 00:27:36;;;;;;;9.40;4.63;;;22.60;90.70;;;;;;5037273;28;37942;-58
2022/08/14 00:30:07;;;;;;;8.02;4.82;;;22.60;90.70;;;;;;5036035;28;36288;-61
2022/08/14 00:32:34;;;;;;;9.95;5.05;;;22.60;90.70;;;;;;5033860;28;39376;-61
2022/08/14 00:35:01;;;;;;;13.13;5.20;;;22.60;90.70;;;;;;5031883;28;38043;-61
2022/08/14 00:37:30;;;;;;;12.88;5.82;;;22.50;90.70;;;;;;5026148;28;37230;-61
2022/08/14 00:39:57;;;;;;;9.50;4.70;;;22.50;90.70;;;;;;5032606;28;36576;-61
2022/08/14 00:42:25;;;;;;;9.77;4.88;;;22.50;90.80;;;;;;5033944;28;37772;-61
2022/08/14 00:44:54;;;;;;;9.85;5.63;;;22.40;90.90;;;;;;5034305;28;38472;-61
2022/08/14 00:47:23;;;;;;;9.70;5.32;;;22.40;91.00;;;;;;5034499;28;38762;-61
2022/08/14 00:49:51;;;;;;;11.32;6.07;;;22.40;91.10;;;;;;5032318;28;37174;-61
2022/08/14 00:52:19;;;;;;;7.28;5.15;;;22.40;91.40;;;;;;5032306;28;37480;-61
2022/08/14 00:54:53;;;;;;;8.15;4.72;;;22.40;91.40;;;;;;5033792;28;38135;-61
2022/08/14 00:57:21;;;;;;;8.85;5.47;;;22.40;91.30;;;;;;5034205;28;36548;-61
2022/08/14 00:59:50;;;;;;;8.40;5.45;;;22.40;91.50;;;;;;5034981;28;37014;-61
2022/08/14 01:02:23;;;;;;;7.75;5.07;;;22.40;91.40;;;;;;5034312;28;39013;-61
2022/08/14 01:04:54;;;;;;;11.18;5.32;;;22.40;91.40;;;;;;5034289;28;36494;-61
2022/08/14 01:07:23;;;;;;;8.93;5.28;;;22.40;91.50;;;;;;5035407;28;37819;-61
2022/08/14 01:09:52;;;;;;;7.45;5.03;;;22.50;91.60;;;;;;5028708;28;36514;-61
2022/08/14 01:12:20;;;;;;;14.38;5.85;;;22.50;91.60;;;;;;5029430;28;37520;-61
2022/08/14 01:14:50;;;;;;;9.15;5.38;;;22.50;91.60;;;;;;5027222;28;38667;-61
2022/08/14 01:17:18;;;;;;;11.07;5.30;;;22.50;91.70;;;;;;5027297;28;38025;-61
2022/08/14 01:22:32;;;;;;;10.23;5.90;;;22.50;91.90;;;;;;5032580;28;39613;-61
2022/08/14 01:24:59;;;;;;;8.70;5.60;;;22.40;92.00;;;;;;5032349;28;37225;-61
2022/08/14 01:27:27;;;;;;;9.57;5.82;;;22.40;92.10;;;;;;5034346;28;36498;-61
2022/08/14 01:29:57;;;;;;;7.28;5.50;;;22.40;92.00;;;;;;5033835;28;36044;-61
2022/08/14 01:32:24;;;;;;;8.95;5.65;;;22.40;92.00;;;;;;5030963;28;36267;-61
2022/08/14 01:34:54;;;;;;;7.68;5.53;;;22.40;91.90;;;;;;5031260;28;39227;-57
2022/08/14 01:37:24;;;;;;;7.45;5.40;;;22.40;91.90;;;;;;5031483;28;37743;-60
2022/08/14 01:39:53;;;;;;;6.85;5.32;;;22.40;91.80;;;;;;5026627;28;35968;-61
2022/08/14 01:42:21;;;;;;;8.18;5.55;;;22.40;91.90;;;;;;5030020;28;36467;-61
2022/08/14 01:44:49;;;;;;;8.35;5.28;;;22.40;91.90;;;;;;5033258;28;38030;-61
2022/08/14 01:47:17;;;;;;;7.60;5.88;;;22.40;92.00;;;;;;5032544;28;38891;-61
2022/08/14 01:49:45;;;;;;;9.30;6.07;;;22.30;92.00;;;;;;5032484;28;37610;-61
2022/08/14 01:52:13;;;;;;;11.13;5.82;;;22.30;92.00;;;;;;5033055;28;37667;-61
2022/08/14 01:54:40;;;;;;;8.63;5.30;;;22.30;92.10;;;;;;5033035;28;39271;-61
2022/08/14 01:57:10;;;;;;;7.35;5.60;;;22.30;92.20;;;;;;5025817;28;41448;-61
2022/08/14 01:59:39;;;;;;;9.80;6.03;;;22.30;92.30;;;;;;5027792;28;38525;-61
2022/08/14 02:02:11;;;;;;;8.82;5.85;;;22.30;92.30;;;;;;5026792;28;37559;-61
2022/08/14 02:04:39;;;;;;;10.00;6.03;;;22.30;92.30;;;;;;5031230;28;38947;-61
2022/08/14 02:07:08;;;;;;;9.45;6.10;;;22.20;92.30;;;;;;5030412;28;37651;-61
2022/08/14 02:09:37;;;;;;;10.75;6.22;;;22.20;92.40;;;;;;5024806;28;38383;-61
2022/08/14 02:12:07;;;;;;;7.95;5.90;;;22.20;92.50;;;;;;5030765;28;38870;-61
2022/08/14 02:14:36;;;;;;;7.95;6.30;;;22.20;92.50;;;;;;5029693;28;37941;-61
2022/08/14 02:17:05;;;;;;;7.85;5.50;;;22.20;92.60;;;;;;5027142;28;36614;-61
2022/08/14 02:19:34;;;;;;;10.70;5.82;;;22.20;92.70;;;;;;5027867;28;36425;-61
2022/08/14 02:22:02;;;;;;;10.30;6.60;;;22.20;92.70;;;;;;5028942;28;37709;-61
2022/08/14 02:24:31;;;;;;;9.82;6.35;;;22.20;92.60;;;;;;5028992;28;39264;-61
2022/08/14 02:27:00;;;;;;;8.25;5.95;;;22.20;92.50;;;;;;5031194;28;38382;-61
2022/08/14 02:29:31;;;;;;;8.82;6.32;;;22.20;92.40;;;;;;5029546;28;36544;-61
2022/08/14 02:32:00;;;;;;;9.45;6.63;;;22.20;92.50;;;;;;5028750;28;37727;-61
2022/08/14 02:34:31;;;;;;;8.45;6.13;;;22.20;92.70;;;;;;5036164;28;38132;-61
2022/08/14 02:37:02;;;;;;;11.27;6.63;;;22.20;92.80;;;;;;5037159;28;40097;-61
2022/08/14 02:39:30;;;;;;;8.90;6.85;;;22.20;92.80;;;;;;5036090;28;37146;-57
2022/08/14 02:41:57;;;;;;;8.88;6.45;;;22.20;92.80;;;;;;5036590;28;35857;-61
2022/08/14 02:44:26;;;;;;;9.73;6.90;;;22.20;92.90;;;;;;5039660;28;38407;-60
2022/08/14 02:46:55;;;;;;;9.15;6.85;;;22.20;93.00;;;;;;5033195;28;37785;-61
2022/08/14 02:49:27;;;;;;;11.07;7.20;;;22.20;93.00;;;;;;5029786;28;38915;-61
2022/08/14 02:51:56;;;;;;;10.38;7.38;;;22.20;93.00;;;;;;5030906;28;37535;-57
2022/08/14 02:54:25;;;;;;;8.88;7.10;;;22.20;93.00;;;;;;5039017;28;36841;-57
2022/08/14 02:56:54;;;;;;;11.55;7.85;;;22.10;93.00;;;;;;5038266;28;37589;-61
2022/08/14 02:59:27;;;;;;;10.07;6.82;;;22.10;93.10;;;;;;5037745;28;36643;-57
2022/08/14 03:01:56;;;;;;;;;;;22.00;93.20;;;;;;5037054;28;36197;-60
2022/08/14 03:04:28;;;;;;;9.40;6.80;;;22.00;93.30;;;;;;5035788;28;38703;-61
2022/08/14 03:06:55;;;;;;;7.97;6.53;;;22.00;93.30;;;;;;5037975;28;38272;-57
2022/08/14 03:09:23;;;;;;;8.98;6.97;;;22.00;93.30;;;;;;5037837;28;37536;-57
2022/08/14 03:11:51;;;;;;;10.45;6.93;;;22.00;93.30;;;;;;5039729;28;37869;-57
2022/08/14 03:14:20;;;;;;;9.68;6.97;;;22.00;93.30;;;;;;5036331;28;38393;-61
2022/08/14 03:16:49;;;;;;;9.52;6.82;;;22.00;93.30;;;;;;5038696;28;39138;-57
2022/08/14 03:19:16;;;;;;;9.40;6.57;;;22.00;93.20;;;;;;5039064;28;35972;-57
2022/08/14 03:21:45;;;;;;;10.77;6.55;;;22.00;93.50;;;;;;5023499;28;37489;-60
2022/08/14 03:24:13;;;;;;;10.05;6.22;;;21.90;93.20;;;;;;5022715;28;39236;-57
2022/08/14 03:26:42;;;;;;;11.60;6.88;;;21.90;93.20;;;;;;5023630;28;37573;-61
2022/08/14 03:29:12;;;;;;;10.48;7.07;;;21.90;93.30;;;;;;5022275;28;39545;-61
2022/08/14 03:31:40;;;;;;;9.57;6.95;;;21.90;93.30;;;;;;5022161;28;38896;-57
2022/08/14 03:34:09;;;;;;;13.40;6.47;;;21.90;93.30;;;;;;5021886;28;36927;-61
2022/08/14 03:36:38;;;;;;;13.52;7.38;;;22.00;93.30;;;;;;5023256;28;37861;-57
2022/08/14 03:39:08;;;;;;;10.40;6.95;;;22.00;93.20;;;;;;5024059;28;37052;-57
2022/08/14 03:41:36;;;;;;;8.68;6.72;;;22.00;93.20;;;;;;5023733;28;36860;-57
2022/08/14 03:44:06;;;;;;;9.60;6.75;;;22.00;93.20;;;;;;5022289;28;39966;-60
2022/08/14 03:46:35;;;;;;;8.63;6.88;;;22.00;93.10;;;;;;5023949;28;37864;-61
2022/08/14 03:49:04;;;;;;;14.82;7.18;;;22.00;93.00;;;;;;5023193;28;37048;-61
2022/08/14 03:51:33;;;;;;;10.18;7.63;;;22.00;93.00;;;;;;5021869;28;37650;-61
2022/08/14 03:54:03;;;;;;;13.85;7.43;;;22.00;93.10;;;;;;5023137;28;38559;-61
2022/08/14 03:56:32;;;;;;;8.32;7.00;;;22.00;93.20;;;;;;5021558;28;38243;-57
2022/08/14 03:59:07;;;;;;;9.63;6.72;;;21.90;93.30;;;;;;5022429;28;36483;-58
2022/08/14 04:01:35;;;;;;;11.02;7.82;;;21.90;93.40;;;;;;5022842;28;37597;-61
2022/08/14 04:04:05;;;;;;;10.10;7.15;;;21.80;93.50;;;;;;5022660;28;39064;-61
2022/08/14 04:06:32;;;;;;;10.65;7.30;;;21.80;93.80;;;;;;5022730;28;39748;-61
2022/08/14 04:08:59;;;;;;;8.48;6.80;;;21.70;94.00;;;;;;5023289;28;37108;-57
2022/08/14 04:11:28;;;;;;;11.13;7.10;;;21.70;94.00;;;;;;5022026;28;36293;-60
2022/08/14 04:13:57;;;;;;;11.77;7.30;;;21.60;94.00;;;;;;5025338;28;38565;-61
2022/08/14 04:16:24;;;;;;;8.45;6.88;;;21.60;94.10;;;;;;5026930;28;36624;-57
2022/08/14 04:18:54;;;;;;;8.52;6.65;;;21.60;94.20;;;;;;5027719;28;36452;-57
2022/08/14 04:21:23;;;;;;;8.55;6.97;;;21.60;94.30;;;;;;5041152;28;37396;-57
2022/08/14 04:23:51;;;;;;;14.98;7.70;;;21.50;94.30;;;;;;5042511;28;39186;-57
2022/08/14 04:26:21;;;;;;;9.70;7.13;;;21.50;94.40;;;;;;5043001;28;37851;-61
2022/08/14 04:28:49;;;;;;;8.77;7.60;;;21.50;94.50;;;;;;5044262;28;37036;-57
2022/08/14 04:31:19;;;;;;;10.50;7.28;;;21.40;94.60;;;;;;5044645;28;38629;-57
2022/08/14 04:33:47;;;;;;;8.73;6.88;;;21.40;94.70;;;;;;5044909;28;40033;-57
2022/08/14 04:36:14;;;;;;;12.68;7.80;;;21.40;94.80;;;;;;5043212;28;37614;-57
2022/08/14 04:44:14;;;;;;;10.23;7.38;;;21.20;95.00;;;;;;5043979;28;37836;-57
2022/08/14 04:48:11;;;;;;;8.80;7.18;;;21.30;95.10;;;;;;5042892;28;37298;-61
2022/08/14 04:49:32;;;;;;;13.18;7.55;;;21.30;95.20;;;;;;5042070;28;36964;-61
2022/08/14 04:52:02;;;;;;;9.98;7.35;;;21.30;95.20;;;;;;5042714;28;37580;-61
2022/08/14 04:54:30;;;;;;;11.60;7.38;;;21.40;95.30;;;;;;5041940;28;38280;-58
2022/08/14 04:56:58;;;;;;;9.95;7.90;;;21.40;95.30;;;;;;5042619;28;37839;-57
2022/08/14 04:59:25;;;;;;;12.88;7.97;;;21.40;95.30;;;;;;5041845;28;36583;-58
2022/08/14 05:01:54;;;;;;;8.52;7.07;;;21.50;95.40;;;;;;5041927;28;38251;-61
2022/08/14 05:04:23;;;;;;;11.10;7.10;;;21.60;95.40;;;;;;5042210;28;39480;-60
2022/08/14 05:06:52;;;;;;;10.75;8.20;;;21.60;95.20;;;;;;5044023;28;36630;-57
2022/08/14 05:09:19;;;;;;;13.40;8.45;;;21.60;95.30;;;;;;5043747;28;36332;-57
2022/08/14 05:11:46;;;;;;;10.13;7.32;;;21.70;95.40;;;;;;5043289;28;38604;-61
2022/08/14 05:14:17;;;;;;;8.80;6.50;;;21.80;95.50;;;;;;5042620;28;38233;-61
2022/08/14 05:16:45;;;;;;;9.35;7.00;;;21.80;95.40;;;;;;5043803;28;38359;-62
2022/08/14 05:19:13;;;;;;;8.52;6.65;;;21.90;95.20;;;;;;5044758;28;36663;-57
2022/08/14 05:21:41;;;;;;;9.30;7.40;;;22.00;95.10;;;;;;5014913;28;39595;-61
2022/08/14 05:24:11;;;;;;;9.48;7.68;;;22.10;95.00;;;;;;5016103;28;39567;-57
2022/08/14 05:26:40;;;;;;;12.23;7.88;;;22.20;95.00;;;;;;5017415;28;20186;-60
2022/08/14 05:29:09;;;;;;;10.80;7.80;;;22.30;95.10;;;;;;5017640;28;36461;-61
2022/08/14 05:31:38;;;;;;;11.63;7.65;;;22.30;95.20;;;;;;5021196;28;37306;-57
2022/08/14 05:34:06;;;;;;;12.25;7.38;;;22.40;95.20;;;;;;5021249;28;37773;-61
2022/08/14 05:36:35;;;;;;;10.82;7.32;;;22.50;95.30;;;;;;5015336;28;37880;-57
2022/08/14 05:39:02;;;;;;;9.98;6.80;;;22.60;95.20;;;;;;5016369;28;37559;-61
2022/08/14 05:41:31;;;;;;;14.05;7.13;;;22.70;95.10;;;;;;5018674;28;38145;-61
2022/08/14 05:43:59;;;;;;;8.80;7.22;;;22.80;95.10;;;;;;5023508;28;39457;-61
2022/08/14 05:46:26;;;;;;;9.35;7.05;;;22.90;95.00;;;;;;5020288;28;40282;-58
2022/08/14 05:48:56;;;;;;;10.35;7.60;;;23.00;94.90;;;;;;5022140;28;36532;-61
2022/08/14 05:51:24;;;;;;;11.25;7.03;;;23.10;94.50;;;;;;5022253;28;39760;-61
2022/08/14 05:53:53;;;;;;;9.98;7.53;;;23.20;94.30;;;;;;5020895;28;37756;-61
2022/08/14 05:56:23;;;;;;;9.40;7.25;;;23.30;94.30;;;;;;5014880;28;38094;-57
2022/08/14 05:58:50;;;;;;;8.88;6.95;;;23.40;94.20;;;;;;5023220;28;36896;-57
2022/08/14 06:01:18;;;;;;;9.73;6.95;;;23.50;94.10;;;;;;5021086;28;36356;-57
2022/08/14 06:03:45;;;;;;;11.23;6.80;;;23.60;94.20;;;;;;5023388;28;38057;-62
2022/08/14 06:06:12;;;;;;;8.05;6.38;;;23.60;94.00;;;;;;5023068;28;37841;-61
2022/08/14 06:08:39;;;;;;;9.43;7.18;;;23.70;93.80;;;;;;5020916;28;35297;-57
2022/08/14 06:11:09;;;;;;;8.18;6.55;;;23.80;93.50;;;;;;5023502;28;37746;-61
2022/08/14 06:13:38;;;;;;;10.45;7.10;;;23.90;93.30;;;;;;5017198;28;38223;-57
2022/08/14 06:16:06;;;;;;;13.07;6.93;;;24.00;93.40;;;;;;5021171;28;37551;-57
2022/08/14 06:18:35;;;;;;;8.15;6.32;;;24.00;93.10;;;;;;5022256;28;36324;-61
2022/08/14 06:21:02;;;;;;;8.80;6.60;;;24.10;93.00;;;;;;5024109;28;36737;-57
2022/08/14 06:23:29;;;;;;;9.73;6.55;;;24.20;92.80;;;;;;5027423;28;38113;-61
2022/08/14 06:25:57;;;;;;;11.13;6.40;;;24.20;92.60;;;;;;5027417;28;36578;-57
2022/08/14 06:28:27;;;;;;;12.23;7.25;;;24.20;92.30;;;;;;5025904;28;36637;-58
2022/08/14 06:30:55;;;;;;;12.75;6.93;;;24.20;92.10;;;;;;5026788;28;38718;-57
2022/08/14 06:33:23;;;;;;;8.52;6.20;;;24.30;92.00;;;;;;5026900;28;37087;-58
2022/08/14 06:35:50;;;;;;;8.88;6.07;;;24.40;91.80;;;;;;5026499;28;37744;-58
2022/08/14 06:38:20;;;;;;;9.88;5.97;;;24.40;91.80;;;;;;5023851;28;36634;-61
2022/08/14 06:40:48;;;;;;;9.48;6.60;;;24.40;91.90;;;;;;5024852;28;36262;-61
2022/08/14 06:43:16;;;;;;;9.40;6.95;;;24.40;92.20;;;;;;5025397;28;37716;-61
2022/08/14 06:45:47;;;;;;;9.30;6.22;;;24.40;92.30;;;;;;5028821;28;37071;-61
2022/08/14 06:48:15;;;;;;;9.25;6.47;;;24.40;92.20;;;;;;5023766;28;37981;-61
2022/08/14 06:50:43;;;;;;;8.32;5.65;;;24.40;92.30;;;;;;5022697;28;37563;-61
2022/08/14 06:53:13;;;;;;;8.25;6.07;;;24.50;92.40;;;;;;5022441;28;38129;-61
2022/08/14 06:55:41;;;;;;;10.15;5.88;;;24.50;92.40;;;;;;5026032;28;37957;-62
2022/08/14 06:58:12;;;;;;;11.00;6.03;;;24.60;92.20;;;;;;5025630;28;38359;-60
2022/08/14 07:00:39;;;;;;;11.63;6.22;;;24.70;92.20;;;;;;5023987;28;37599;-61
2022/08/14 07:05:53;;;;;;;10.80;6.68;;;24.70;91.80;;;;;;5026552;28;37504;-61
2022/08/14 07:08:25;;;;;;;7.85;5.93;;;24.70;91.90;;;;;;5025253;28;37072;-61
2022/08/14 07:10:54;;;;;;;12.48;6.93;;;24.70;91.90;;;;;;5023747;28;39540;-61
2022/08/14 07:13:23;;;;;;;10.60;6.45;;;24.70;91.50;;;;;;5023844;28;39226;-62
2022/08/14 07:15:53;;;;;;;8.43;6.65;;;24.80;91.30;;;;;;5024113;28;36528;-61
2022/08/14 07:18:23;;;;;;;7.55;5.97;;;24.80;91.40;;;;;;5024324;28;37130;-61
2022/08/14 07:20:51;;;;;;;10.55;6.13;;;24.80;91.30;;;;;;5024577;28;37401;-61
2022/08/14 07:23:20;;;;;;;8.43;6.15;;;24.90;91.20;;;;;;5027239;28;38502;-60
2022/08/14 07:25:48;;;;;;;12.40;6.45;;;24.90;91.20;;;;;;5026894;28;36387;-60
2022/08/14 07:28:18;;;;;;;8.70;6.47;;;25.00;91.30;;;;;;5026760;28;36427;-61
2022/08/14 07:30:45;;;;;;;8.55;6.10;;;25.00;90.90;;;;;;5025737;28;37911;-57
2022/08/14 07:33:13;;;;;;;9.52;6.50;;;25.10;90.90;;;;;;5022899;28;39297;-57
2022/08/14 07:35:42;;;;;;;10.25;6.68;;;25.10;90.90;;;;;;5025707;28;40010;-57
2022/08/14 07:38:17;;;;;;;11.57;6.57;;;25.10;90.80;;;;;;5024640;28;35434;-57
2022/08/14 07:40:44;;;;;;;7.55;5.72;;;25.20;91.10;;;;;;5025214;28;36378;-57
2022/08/14 07:43:12;;;;;;;10.15;6.35;;;25.20;90.90;;;;;;5023427;28;39037;-57
2022/08/14 07:45:40;;;;;;;6.30;5.15;;;25.40;90.90;;;;;;5025210;28;37752;-58
2022/08/14 07:48:07;;;;;;;8.32;5.40;;;25.40;90.60;;;;;;5024584;28;38186;-58
2022/08/14 07:50:35;;;;;;;11.63;5.95;;;25.40;90.70;;;;;;5025802;28;37213;-57
2022/08/14 07:53:05;;;;;;;11.80;5.88;;;25.40;90.50;;;;;;5025282;28;38218;-58
2022/08/14 07:55:33;;;;;;;7.82;5.57;;;25.50;90.50;;;;;;5025699;28;36513;-58
2022/08/14 07:58:00;;;;;;;6.95;5.53;;;25.50;90.30;;;;;;5025312;28;35436;-57
2022/08/14 08:00:29;;;;;;;9.70;6.07;;;25.50;90.30;;;;;;5024078;28;37318;-61
2022/08/14 08:02:58;;;;;;;9.25;5.70;;;25.50;90.40;;;;;;5025358;28;38220;-61
2022/08/14 08:05:26;;;;;;;9.20;6.03;;;25.60;90.30;;;;;;5022065;28;37890;-61
2022/08/14 08:07:54;;;;;;;9.38;6.25;;;25.60;90.10;;;;;;5024018;28;37596;-62
2022/08/14 08:10:35;;;;;;;8.48;5.20;;;25.60;90.10;;;;;;5024584;28;39363;-61
2022/08/14 08:13:04;;;;;;;6.82;5.20;;;25.70;89.80;;;;;;5024919;28;38984;-61
2022/08/14 08:15:34;;;;;;;6.88;5.38;;;25.70;90.00;;;;;;5024776;28;40492;-61
2022/08/14 08:18:03;;;;;;;8.23;5.32;;;25.80;89.10;;;;;;5025555;28;37082;-61
2022/08/14 08:20:32;;;;;;;7.15;5.45;;;25.80;88.90;;;;;;5023318;28;38310;-57
2022/08/14 08:23:01;;;;;;;8.48;5.05;;;25.80;88.30;;;;;;5024669;28;39207;-57
2022/08/14 08:25:32;;;;;;;9.65;6.30;;;25.90;88.90;;;;;;5023932;28;39542;-58
2022/08/14 08:28:01;;;;;;;6.65;4.70;;;26.00;88.50;;;;;;5024748;28;37180;-57
2022/08/14 08:30:29;;;;;;;7.28;4.68;;;26.10;88.40;;;;;;5025320;28;40267;-58
2022/08/14 08:32:59;;;;;;;7.88;5.50;;;26.10;87.30;;;;;;5024255;28;38173;-57
2022/08/14 08:35:29;;;;;;;8.48;5.60;;;26.20;87.70;;;;;;5024870;28;37760;-58
2022/08/14 08:38:02;;;;;;;10.48;5.22;;;26.20;87.60;;;;;;5024017;28;37333;-57
2022/08/14 08:40:35;;;;;;;8.73;4.88;;;26.30;87.10;;;;;;5024414;28;36369;-61
2022/08/14 08:43:05;;;;;;;9.05;5.13;;;26.40;87.10;;;;;;5024539;28;38769;-61
2022/08/14 08:45:34;;;;;;;10.00;4.70;;;26.40;87.30;;;;;;5025240;28;37627;-57
2022/08/14 08:48:02;;;;;;;7.80;5.07;;;26.50;86.70;;;;;;5024739;28;36820;-57
2022/08/14 08:50:33;;;;;;;8.18;5.20;;;26.60;85.90;;;;;;5026358;28;37617;-61
2022/08/14 08:53:02;;;;;;;9.48;4.82;;;26.60;86.00;;;;;;5023724;28;37780;-61
2022/08/14 08:55:33;;;;;;;6.57;4.72;;;26.60;85.70;;;;;;5023247;28;37553;-61
2022/08/14 08:58:03;;;;;;;8.02;5.10;;;26.70;85.60;;;;;;5023642;28;35830;-58
2022/08/14 09:00:33;;;;;;;8.10;4.43;;;26.80;84.50;;;;;;5027467;28;37655;-57
2022/08/14 09:03:03;;;;;;;8.88;4.40;;;26.90;83.90;;;;;;5026471;28;37738;-61
2022/08/14 09:05:32;;;;;;;9.32;4.45;;;27.00;83.30;;;;;;5029289;28;40294;-61
2022/08/14 09:08:11;;;;;;;6.97;3.92;;;27.10;81.50;;;;;;5028893;28;37146;-61
2022/08/14 09:10:39;;;;;;;7.43;4.18;;;27.30;80.40;;;;;;5028427;28;37593;-60
2022/08/14 09:13:07;;;;;;;8.32;4.18;;;27.40;79.70;;;;;;5029529;28;39644;-61
2022/08/14 09:15:34;;;;;;;6.40;4.30;;;27.50;79.10;;;;;;5029702;28;37038;-61
2022/08/14 09:18:02;;;;;;;7.60;4.45;;;27.60;78.70;;;;;;5030806;28;35421;-61
2022/08/14 09:20:30;;;;;;;6.32;4.13;;;27.60;78.90;;;;;;5036160;28;37039;-60
2022/08/14 09:22:58;;;;;;;8.75;4.70;;;27.70;78.20;;;;;;5041925;28;38127;-61
2022/08/14 09:25:26;;;;;;;6.40;4.53;;;27.70;78.00;;;;;;5043904;28;39555;-58
2022/08/14 09:27:55;;;;;;;7.45;4.30;;;27.80;78.40;;;;;;5042380;28;37495;-58
2022/08/14 09:30:22;;;;;;;7.28;3.90;;;27.80;77.50;;;;;;5042914;28;37345;-58
2022/08/14 09:33:03;;;;;;;8.15;4.80;;;27.90;78.20;;;;;;5043706;28;37957;-58
2022/08/14 09:35:43;;;;;;;5.70;4.32;;;27.90;77.20;;;;;;5042607;28;38211;-58
2022/08/14 09:38:19;;;;;;;7.25;4.20;;;28.00;76.10;;;;;;5040250;28;36982;-58
2022/08/14 09:41:01;;;;;;;5.35;4.22;;;28.10;75.60;;;;;;5041868;28;37580;-61
2022/08/14 09:43:39;;;;;;;8.95;4.20;;;28.10;75.20;;;;;;5042994;28;38248;-58
2022/08/14 09:46:07;;;;;;;7.97;4.38;;;28.20;74.90;;;;;;5044718;28;39875;-61
2022/08/14 09:48:36;;;;;;;6.45;4.32;;;28.30;75.40;;;;;;5044911;28;35287;-61
2022/08/14 09:51:06;;;;;;;7.30;4.30;;;28.30;75.20;;;;;;5043755;28;37557;-61
2022/08/14 09:53:42;;;;;;;6.07;4.38;;;28.40;74.90;;;;;;5041318;28;38365;-58
2022/08/14 09:56:10;;;;;;;7.60;4.30;;;28.50;74.10;;;;;;5043940;28;36521;-58
2022/08/14 09:58:42;;;;;;;6.45;4.25;;;28.50;73.80;;;;;;5044252;28;37682;-58
2022/08/14 10:01:12;;;;;;;8.50;4.40;;;28.50;73.80;;;;;;5039613;28;39155;-61
2022/08/14 10:03:49;;;;;;;5.70;4.00;;;28.60;73.60;;;;;;5040968;28;39088;-61
2022/08/14 10:06:18;;;;;;;8.10;4.10;;;28.60;72.20;;;;;;5042952;28;36498;-62
2022/08/14 10:08:49;;;;;;;6.00;3.83;;;28.70;71.60;;;;;;5037894;28;36483;-61
2022/08/14 10:11:18;;;;;;;7.15;4.75;;;28.70;70.90;;;;;;5040334;28;36402;-61
2022/08/14 10:13:51;;;;;;;6.43;4.18;;;28.80;71.60;;;;;;5037248;28;38141;-61
2022/08/14 10:16:20;;;;;;;8.05;4.28;;;28.80;72.20;;;;;;5041736;28;38052;-61
2022/08/14 10:18:50;;;;;;;6.80;4.68;;;28.80;71.80;;;;;;5040150;28;36191;-58
2022/08/14 10:21:18;;;;;;;6.25;4.07;;;28.90;70.90;;;;;;5027140;28;37559;-61
2022/08/14 10:23:49;;;;;;;6.90;4.30;;;28.90;71.60;;;;;;5025325;28;38569;-62
2022/08/14 10:26:18;;;;;;;7.88;4.32;;;28.90;71.40;;;;;;5021510;28;36620;-61
2022/08/14 10:28:48;;;;;;;9.05;4.82;;;29.00;70.20;;;;;;5025036;28;37964;-61
2022/08/14 10:31:24;;;;;;;6.40;4.32;;;29.00;70.40;;;;;;5024069;28;37177;-61
2022/08/14 10:34:00;;;;;;;6.47;4.90;;;29.00;70.40;;;;;;5024403;28;39149;-61
2022/08/14 10:36:30;;;;;;;5.78;4.00;;;29.00;70.60;;;;;;5024878;28;38228;-58
2022/08/14 10:38:59;;;;;;;6.95;4.10;;;29.00;71.20;;;;;;5025122;28;37591;-58
2022/08/14 10:41:35;;;;;;;6.32;4.05;;;29.00;70.70;;;;;;5023509;28;38061;-58
2022/08/14 10:44:11;;;;;;;6.60;4.57;;;29.00;69.30;;;;;;5024849;28;38329;-61
2022/08/14 10:46:44;;;;;;;6.13;4.03;;;29.00;69.40;;;;;;5024060;28;37765;-58
2022/08/14 10:49:19;;;;;;;6.43;4.07;;;29.00;70.10;;;;;;5022795;28;39221;-62
2022/08/14 10:52:00;;;;;;;6.32;3.70;;;29.00;69.00;;;;;;5024876;28;36581;-61
2022/08/14 10:54:33;;;;;;;6.20;3.90;;;29.10;69.60;;;;;;5024642;28;38024;-61
2022/08/14 10:57:19;;;;;;;;;;;29.10;68.00;;;;;;5024245;28;37750;-58
2022/08/14 10:59:50;;;;;;;6.47;4.30;;;29.10;67.50;;;;;;5023574;28;37760;-61
2022/08/14 11:02:20;;;;;;;6.72;4.05;;;29.20;68.30;;;;;;5022179;28;36279;-61
2022/08/14 11:04:59;;;;;;;5.85;4.00;;;29.20;67.70;;;;;;5013739;28;38817;-61
2022/08/14 11:07:26;;;;;;;6.68;3.83;;;29.20;67.70;;;;;;5015666;28;36507;-62
2022/08/14 11:09:55;;;;;;;5.53;3.75;;;29.20;67.40;;;;;;5019001;28;36684;-61
2022/08/14 11:12:22;;;;;;;5.78;3.58;;;29.20;66.00;;;;;;5018748;28;37505;-61
2022/08/14 11:14:58;;;;;;;6.88;3.30;;;29.20;66.50;;;;;;5019493;28;38147;-61
2022/08/14 11:17:27;;;;;;;5.32;3.40;;;29.20;66.20;;;;;;5017799;28;37290;-61
2022/08/14 11:19:59;;;;;;;5.60;3.85;;;29.20;66.40;;;;;;5018304;28;35231;-61
2022/08/14 11:22:29;;;;;;;5.87;3.33;;;29.20;65.50;;;;;;5016541;28;37237;-61
2022/08/14 11:25:01;;;;;;;5.70;3.75;;;29.20;65.80;;;;;;5014606;28;38641;-61
2022/08/14 11:27:30;;;;;;;6.50;4.00;;;29.10;65.40;;;;;;5017114;28;37751;-61
2022/08/14 11:30:02;;;;;;;8.25;4.00;;;29.20;65.70;;;;;;5012578;28;35445;-62
2022/08/14 11:32:30;;;;;;;8.33;3.77;;;29.20;66.30;;;;;;5015134;28;36372;-61
2022/08/14 11:34:57;;;;;;;6.13;4.18;;;29.20;65.80;;;;;;5006920;28;38184;-61
2022/08/14 11:37:24;;;;;;;6.97;4.18;;;29.20;65.40;;;;;;5012571;28;37419;-61
2022/08/14 11:39:52;;;;;;;6.03;3.97;;;29.20;64.60;;;;;;5013522;28;35519;-61
2022/08/14 11:42:22;;;;;;;5.53;4.47;;;29.20;64.90;;;;;;5008212;28;37819;-62
2022/08/14 11:44:51;;;;;;;12.38;4.47;;;29.20;65.20;;;;;;5016186;28;39395;-61
2022/08/14 11:47:20;;;;;;;8.95;4.47;;;29.20;66.10;;;;;;5017456;28;38482;-61
2022/08/14 11:49:49;;;;;;;5.82;4.05;;;29.20;65.90;;;;;;5018531;28;36712;-61
2022/08/14 11:52:18;;;;;;;6.80;4.13;;;29.10;65.80;;;;;;5017832;28;37767;-61
2022/08/14 11:54:55;;;;;;;6.47;4.40;;;29.20;65.40;;;;;;5019779;28;38297;-61
2022/08/14 11:57:23;;;;;;;7.38;3.70;;;29.20;64.20;;;;;;5019343;28;37681;-61
2022/08/14 12:00:01;;;;;;;5.93;3.90;;;29.20;65.30;;;;;;5017322;28;36414;-61
2022/08/14 12:02:29;;;;;;;5.93;3.90;;;29.10;64.50;;;;;;5017797;28;37431;-62
2022/08/14 12:04:57;;;;;;;6.65;4.22;;;29.20;64.40;;;;;;5014674;28;38143;-61
2022/08/14 12:07:24;;;;;;;5.93;3.95;;;29.10;64.90;;;;;;5013039;28;38842;-61
2022/08/14 12:09:54;;;;;;;6.30;4.50;;;29.10;65.20;;;;;;5013717;28;36381;-62
2022/08/14 12:12:25;;;;;;;8.00;4.35;;;29.20;64.80;;;;;;5012905;28;37759;-61
2022/08/14 12:14:55;;;;;;;7.07;4.22;;;29.20;64.90;;;;;;5010019;28;38837;-62
2022/08/14 12:17:23;;;;;;;8.07;4.63;;;29.20;65.40;;;;;;5017025;28;37066;-62
2022/08/14 12:19:54;;;;;;;6.63;4.25;;;29.20;64.80;;;;;;5017076;28;36345;-62
2022/08/14 12:22:34;;;;;;;8.73;4.85;;;29.30;64.40;;;;;;5014441;28;37597;-62
2022/08/14 12:25:01;;;;;;;6.35;4.38;;;29.20;65.00;;;;;;5016441;28;38554;-61
2022/08/14 12:27:40;;;;;;;7.82;4.35;;;29.20;63.90;;;;;;5014480;28;40295;-62
2022/08/14 12:30:08;;;;;;;7.38;4.32;;;29.20;64.10;;;;;;5015229;28;35508;-61
2022/08/14 12:32:40;;;;;;;6.93;4.53;;;29.20;64.80;;;;;;5016469;28;39369;-61
2022/08/14 12:35:10;;;;;;;7.30;4.45;;;29.20;64.80;;;;;;5018431;28;37920;-61
2022/08/14 12:37:37;;;;;;;7.53;4.40;;;29.20;65.10;;;;;;5016603;28;37918;-61
2022/08/14 12:40:13;;;;;;;6.53;3.95;;;29.20;63.50;;;;;;5017622;28;37939;-61
2022/08/14 12:42:40;;;;;;;7.15;3.92;;;29.30;63.20;;;;;;5015990;28;37509;-61
2022/08/14 12:45:11;;;;;;;6.20;4.07;;;29.20;62.60;;;;;;5018743;28;37477;-61
2022/08/14 12:47:39;;;;;;;8.82;4.65;;;29.20;63.00;;;;;;5018112;28;37609;-61
2022/08/14 12:50:10;;;;;;;7.88;4.80;;;29.20;63.50;;;;;;5019567;28;36574;-61
2022/08/14 12:52:39;;;;;;;7.25;4.25;;;29.20;63.10;;;;;;5019847;28;38833;-62
2022/08/14 12:55:09;;;;;;;7.60;4.30;;;29.20;63.00;;;;;;5018315;28;38042;-62
2022/08/14 12:57:40;;;;;;;5.55;4.15;;;29.20;63.20;;;;;;5018961;28;38712;-62
2022/08/14 13:00:12;;;;;;;6.70;4.28;;;29.10;62.60;;;;;;5018847;28;37853;-61
2022/08/14 13:02:41;;;;;;;7.70;5.13;;;29.00;63.00;;;;;;5017518;28;37454;-61
2022/08/14 13:05:12;;;;;;;9.57;4.43;;;28.90;64.30;;;;;;5018531;28;38636;-60
2022/08/14 13:07:41;;;;;;;6.15;4.28;;;29.00;63.90;;;;;;5019927;28;38471;-62